Imperial County Airport
KIPL : rendu visible

Aérodrome :











RETROUVEZ-NOUS SUR...

 
LOGIN :

S'inscrire | Disclaimer

   EN    FR    IT 

 









Légende :    VFR   VFR Marginal   IFR   IFR Intensif   IFR Très Intensif
Visi : 
Plafond : 
>= 8 km
>= 3000ft
5 à 8 km
1000 à 3000 ft
1500m à 5 km
500 à 1000 ft
800 à 1500m
200 à 500 ft
< 800m
< 200 ft
Symboles :   Orages  Brouillard  Fortes neiges  Fortes précipitations  Vent > 20 kt







- Altitude de l'aérodrome : -54 ft


KIPL - Imperial County

DERNIER METAR :
  • 190253Z AUTO 29011KT 10SM CLR 31/M04 A2971 RMK AO2 SLP060 T03061039 53004

METARs EXPIRÉS :
  • 190153Z AUTO 28010KT 10SM CLR 31/M02 A2969 RMK AO2 SLP056 T03111017
  • 190053Z AUTO 27011KT 10SM CLR 34/00 A2969 RMK AO2 SLP056 T03390000

TAF KIPL
Valide du 19 à 00h jusqu'au 20 à 00h UTC


182327Z 1900/1924 19008KT P6SM SKC
FM190100 27011KT P6SM SKC
FM192200 27014G25KT P6SM SKC
Pas de NOTAMs connus pour ce terrain.



MET'MAP, la Météo Aéronautique d'un coup d'oeil ! - Copyright ORBIFLY Décembre 2007 - Disclaimer

ORBIFLY MET'MAP TEAM :

Programmation & Développement : Alexandra Zaïnal
Conception & Développement : Baudouin d'Aumeries
Co-Programmation & Développement : Marc-Olivier Méhu
Soutien technique & logistique : Manuel Goepfert

Contact : metmap@orbifly.com




SOURCES & CREDITS :

   NOAA       Earth
Advisory